Time;durP1;ratioP1;P1;durP2;ratioP2;P2;SDS_P1;SDS_P2;PMS_P1;PMS_P2;Temp;Humidity;BMP_temperature;BMP_pressure;BME280_temperature;BME280_humidity;BME280_pressure;Samples;Min_cycle;Max_cycle;Signal;HPM_P1;HPM_P2
2023/03/22 00:02:24;;;;;;;2.67;0.50;;;;;;;10.26;100.00;97693.34;4931733;29;20102;-81
2023/03/22 00:04:53;;;;;;;2.92;0.30;;;;;;;10.22;100.00;97697.44;4931764;29;20468;-80
2023/03/22 00:07:21;;;;;;;4.57;0.70;;;;;;;10.15;100.00;97722.03;4941913;29;20075;-80
2023/03/22 00:09:49;;;;;;;3.03;0.60;;;;;;;10.17;100.00;97721.84;4911816;29;20031;-80
2023/03/22 00:12:17;;;;;;;8.07;0.90;;;;;;;10.11;100.00;97728.78;4930397;29;20043;-79
2023/03/22 00:14:45;;;;;;;9.88;1.88;;;;;;;9.96;100.00;97729.00;4917465;29;20057;-79
2023/03/22 00:17:13;;;;;;;9.95;1.75;;;;;;;9.80;100.00;97733.72;4943994;29;20063;-80
2023/03/22 00:19:43;;;;;;;9.90;1.77;;;;;;;9.68;100.00;97741.44;4941302;28;20317;-81
2023/03/22 00:22:13;;;;;;;11.43;1.73;;;;;;;9.55;100.00;97742.28;4924748;29;20039;-81
2023/03/22 00:24:43;;;;;;;12.88;2.28;;;;;;;9.39;100.00;97769.88;4921350;29;20499;-81
2023/03/22 00:27:11;;;;;;;13.77;2.20;;;;;;;9.25;100.00;97762.97;4935782;29;20032;-80
2023/03/22 00:29:39;;;;;;;20.52;2.92;;;;;;;9.20;100.00;97770.69;4926556;29;20046;-81
2023/03/22 00:32:07;;;;;;;16.60;3.10;;;;;;;9.08;100.00;97771.25;4940729;28;20051;-80
2023/03/22 00:34:35;;;;;;;16.08;2.22;;;;;;;8.98;100.00;97763.75;4925206;29;20036;-81
2023/03/22 00:37:03;;;;;;;13.13;2.70;;;;;;;8.94;100.00;97783.59;4925773;29;20664;-81
2023/03/22 00:39:32;;;;;;;18.20;3.28;;;;;;;8.94;100.00;97786.25;4932137;29;20035;-81
2023/03/22 00:42:04;;;;;;;14.30;2.85;;;;;;;8.92;100.00;97790.91;4944253;29;20111;-81
2023/03/22 00:44:32;;;;;;;16.88;2.85;;;;;;;8.85;100.00;97792.72;4945153;29;20544;-81
2023/03/22 00:47:01;;;;;;;20.70;2.92;;;;;;;8.88;100.00;97802.84;4939037;29;20035;-80
2023/03/22 00:49:30;;;;;;;27.98;4.43;;;;;;;8.81;100.00;97801.00;4946450;29;20039;-80
2023/03/22 00:51:58;;;;;;;29.02;4.55;;;;;;;8.82;100.00;97793.94;4929928;29;20110;-80
2023/03/22 00:54:26;;;;;;;19.80;3.95;;;;;;;8.73;100.00;97818.81;4926337;29;20046;-80
2023/03/22 00:56:55;;;;;;;15.10;3.45;;;;;;;8.67;100.00;97804.59;4936121;28;20067;-80
2023/03/22 00:59:27;;;;;;;20.25;4.18;;;;;;;8.57;100.00;97815.50;4934643;28;20082;-80
2023/03/22 01:01:57;;;;;;;22.58;3.80;;;;;;;8.55;100.00;97835.97;4951011;28;20034;-81
2023/03/22 01:04:26;;;;;;;16.27;3.38;;;;;;;8.44;100.00;97847.84;4933771;28;20035;-81
2023/03/22 01:06:58;;;;;;;25.20;4.00;;;;;;;8.31;100.00;97849.38;4947623;28;20042;-81
2023/03/22 01:09:29;;;;;;;20.95;4.28;;;;;;;8.26;100.00;97856.22;4961767;28;20043;-81
2023/03/22 01:12:00;;;;;;;18.42;3.38;;;;;;;8.17;100.00;97837.16;4949516;28;20077;-80
2023/03/22 01:14:30;;;;;;;22.05;3.38;;;;;;;8.09;100.00;97850.47;4944626;29;20046;-80
2023/03/22 01:17:00;;;;;;;14.98;2.95;;;;;;;8.03;100.00;97844.97;4931663;29;20031;-80
2023/03/22 01:19:30;;;;;;;21.52;3.35;;;;;;;8.00;100.00;97845.34;4967334;28;20566;-80
2023/03/22 01:22:00;;;;;;;21.88;4.55;;;;;;;7.93;100.00;97844.50;4944930;28;20039;-81
2023/03/22 01:24:30;;;;;;;17.90;3.20;;;;;;;7.89;100.00;97844.06;4934122;28;20088;-80
2023/03/22 01:26:58;;;;;;;18.73;4.03;;;;;;;7.81;100.00;97846.81;4936755;28;20039;-80
2023/03/22 01:29:30;;;;;;;25.98;4.32;;;;;;;7.75;100.00;97864.19;4937375;28;20391;-81
2023/03/22 01:32:00;;;;;;;30.33;3.95;;;;;;;7.69;100.00;97865.75;4952606;28;20091;-80
2023/03/22 01:34:30;;;;;;;29.08;5.30;;;;;;;7.65;100.00;97874.19;4936605;28;20034;-80
2023/03/22 01:36:59;;;;;;;23.58;4.45;;;;;;;7.57;100.00;97886.50;4949405;28;20090;-80
2023/03/22 01:39:27;;;;;;;22.60;3.63;;;;;;;7.51;100.00;97889.88;4933404;28;20392;-80
2023/03/22 01:42:02;;;;;;;19.08;3.78;;;;;;;7.50;100.00;97892.69;4961620;28;20031;-80
2023/03/22 01:44:31;;;;;;;15.38;2.63;;;;;;;7.49;100.00;97896.31;4940028;28;20035;-80
2023/03/22 01:46:59;;;;;;;31.05;4.63;;;;;;;7.42;100.00;97904.16;4945607;28;20074;-80
2023/03/22 01:49:34;;;;;;;28.77;4.13;;;;;;;7.43;100.00;97911.00;4947946;28;20093;-80
2023/03/22 01:52:13;;;;;;;19.52;2.97;;;;;;;7.37;100.00;97901.25;4954427;28;20063;-77
2023/03/22 01:54:53;;;;;;;14.63;3.20;;;;;;;7.34;100.00;97906.88;4952480;29;20039;-77
2023/03/22 01:57:42;;;;;;;17.13;2.88;;;;;;;7.26;100.00;97919.13;4928303;29;20469;-80
2023/03/22 02:00:17;;;;;;;21.98;3.03;;;;;;;7.25;100.00;97924.56;4933353;29;20047;-78
2023/03/22 02:03:19;;;;;;;12.35;3.30;;;;;;;7.22;100.00;97940.69;4929891;29;20048;-80
2023/03/22 02:05:50;;;;;;;22.85;3.08;;;;;;;7.26;100.00;97934.09;4911530;29;20035;-76
2023/03/22 02:08:20;;;;;;;20.63;3.08;;;;;;;7.22;100.00;97948.56;4915856;28;20034;-77
2023/03/22 02:11:20;;;;;;;19.58;2.80;;;;;;;7.18;100.00;97942.91;4923557;29;20095;-80
2023/03/22 02:14:04;;;;;;;16.17;2.40;;;;;;;7.14;100.00;97952.94;4947236;28;20124;-80
2023/03/22 02:17:15;;;;;;;15.98;3.45;;;;;;;7.07;100.00;97955.50;4925832;29;20044;-80
2023/03/22 02:19:52;;;;;;;12.45;2.00;;;;;;;6.99;100.00;97963.47;4929848;29;20027;-79
2023/03/22 02:22:39;;;;;;;19.38;3.72;;;;;;;6.96;100.00;97963.81;4926066;29;20072;-80
2023/03/22 02:25:35;;;;;;;;;;;;;;;6.81;100.00;97972.56;4918028;28;20457;-80
2023/03/22 02:28:23;;;;;;;20.08;2.75;;;;;;;6.78;100.00;97978.16;4919349;29;19925;-80
2023/03/22 02:31:38;;;;;;;16.23;2.58;;;;;;;6.66;100.00;97972.53;4944328;28;20508;-80
2023/03/22 02:34:46;;;;;;;15.88;2.95;;;;;;;6.58;100.00;97970.81;4934144;28;20049;-80
2023/03/22 02:37:40;;;;;;;18.52;2.58;;;;;;;6.51;100.00;97967.28;4925399;29;20628;-80
2023/03/22 02:40:17;;;;;;;16.10;2.47;;;;;;;6.53;100.00;97982.84;4930857;29;20509;-80
2023/03/22 02:42:47;;;;;;;14.05;2.53;;;;;;;6.50;100.00;97984.00;4940896;29;20039;-80
2023/03/22 02:45:43;;;;;;;15.27;2.47;;;;;;;6.48;100.00;97996.50;4945452;28;20488;-79
2023/03/22 02:48:17;;;;;;;15.45;2.45;;;;;;;6.42;100.00;97986.69;4923597;29;20044;-80
2023/03/22 02:50:55;;;;;;;17.67;2.35;;;;;;;6.36;100.00;97984.78;4949539;29;20035;-80
2023/03/22 02:53:32;;;;;;;21.10;2.70;;;;;;;6.31;100.00;97988.78;4917762;29;20040;-80
2023/03/22 02:56:16;;;;;;;15.25;3.40;;;;;;;6.30;100.00;97989.78;4935688;28;20055;-80
2023/03/22 02:58:53;;;;;;;21.20;3.92;;;;;;;6.28;100.00;97991.75;4965781;28;20041;-80
2023/03/22 03:01:26;;;;;;;19.02;3.28;;;;;;;6.26;100.00;97985.06;4952250;28;20095;-77
2023/03/22 03:04:03;;;;;;;19.40;3.53;;;;;;;6.20;100.00;97992.66;4958970;28;20043;-77
2023/03/22 03:06:37;;;;;;;21.20;3.45;;;;;;;6.17;100.00;98006.13;4917734;28;20054;-80
2023/03/22 03:09:08;;;;;;;23.63;3.17;;;;;;;6.15;100.00;98012.50;4909114;28;20503;-80
2023/03/22 03:11:38;;;;;;;19.92;2.67;;;;;;;6.14;100.00;98016.97;4951712;28;20070;-80
2023/03/22 03:14:20;;;;;;;17.00;2.70;;;;;;;6.12;100.00;98003.19;4951573;28;20031;-80
2023/03/22 03:17:05;;;;;;;17.05;2.28;;;;;;;6.16;100.00;98009.72;4934415;28;20031;-77
2023/03/22 03:19:41;;;;;;;9.40;1.50;;;;;;;6.13;100.00;98022.38;4945691;28;20034;-77
2023/03/22 03:22:53;;;;;;;9.20;1.98;;;;;;;6.11;100.00;98022.56;4952405;28;20034;-80
2023/03/22 03:25:42;;;;;;;12.50;2.10;;;;;;;6.17;100.00;98028.91;4908266;29;20054;-79
2023/03/22 03:28:37;;;;;;;14.02;2.25;;;;;;;6.17;100.00;98021.84;4938880;28;20035;-80
2023/03/22 03:31:10;;;;;;;18.55;3.45;;;;;;;6.15;100.00;98028.25;4933004;28;20739;-80
2023/03/22 03:33:52;;;;;;;17.27;2.85;;;;;;;6.15;100.00;98025.63;4961222;28;20039;-80
2023/03/22 03:36:23;;;;;;;16.17;2.05;;;;;;;6.13;100.00;98028.41;4961430;28;20054;-77
2023/03/22 03:38:55;;;;;;;19.33;3.03;;;;;;;6.13;100.00;98022.38;4947570;28;20035;-77
2023/03/22 03:41:29;;;;;;;12.60;1.80;;;;;;;6.10;100.00;98033.22;4937127;29;20498;-80
2023/03/22 03:43:58;;;;;;;18.98;2.92;;;;;;;6.07;100.00;98037.00;4954908;28;20046;-80
2023/03/22 03:46:28;;;;;;;11.55;1.63;;;;;;;6.06;100.00;98053.72;4943710;29;20043;-80
2023/03/22 03:48:58;;;;;;;10.55;1.67;;;;;;;6.07;100.00;98056.19;4924798;28;20495;-79
2023/03/22 03:51:28;;;;;;;15.05;1.95;;;;;;;6.11;100.00;98068.94;4941784;29;20162;-79
2023/03/22 03:53:58;;;;;;;14.27;1.95;;;;;;;6.07;100.00;98071.91;4949640;28;20039;-79
2023/03/22 03:56:28;;;;;;;13.00;2.13;;;;;;;6.11;100.00;98054.03;4954273;28;20059;-79
2023/03/22 03:58:57;;;;;;;12.95;1.65;;;;;;;6.10;100.00;98048.97;4897799;29;20039;-80
2023/03/22 04:01:27;;;;;;;8.45;1.45;;;;;;;6.02;100.00;98053.22;4951342;29;20039;-80
2023/03/22 04:04:09;;;;;;;9.13;1.58;;;;;;;5.88;100.00;98061.81;4932620;29;20058;-80
2023/03/22 04:06:46;;;;;;;13.32;1.65;;;;;;;5.81;100.00;98062.53;4936586;29;20370;-79
2023/03/22 04:09:20;;;;;;;12.80;1.95;;;;;;;5.69;100.00;98064.72;4923342;29;20110;-80
2023/03/22 04:11:55;;;;;;;9.50;1.27;;;;;;;5.65;100.00;98063.44;4922238;29;20023;-79
2023/03/22 04:14:25;;;;;;;9.75;1.95;;;;;;;5.57;100.00;98066.09;4918771;29;20031;-80
2023/03/22 04:16:54;;;;;;;6.93;1.50;;;;;;;5.52;100.00;98063.16;4928932;29;20038;-79
2023/03/22 04:19:25;;;;;;;5.57;2.05;;;;;;;5.46;100.00;98067.31;4941190;28;20511;-80
2023/03/22 04:21:55;;;;;;;11.45;1.23;;;;;;;5.44;100.00;98069.25;4925806;29;20046;-77
2023/03/22 04:24:24;;;;;;;7.68;1.60;;;;;;;5.40;100.00;98074.03;4927440;29;20031;-77
2023/03/22 04:26:52;;;;;;;10.45;1.20;;;;;;;5.35;100.00;98073.72;4943557;28;20035;-79
2023/03/22 04:29:31;;;;;;;14.63;1.80;;;;;;;5.33;100.00;98073.91;4941383;29;20068;-79
2023/03/22 04:32:10;;;;;;;12.02;1.35;;;;;;;5.31;100.00;98077.66;4925055;29;20498;-79
2023/03/22 04:34:41;;;;;;;6.18;0.88;;;;;;;5.29;100.00;98077.00;4925878;29;20444;-79
2023/03/22 04:37:14;;;;;;;8.07;1.58;;;;;;;5.30;100.00;98081.28;4948165;28;20039;-79
2023/03/22 04:39:53;;;;;;;10.02;1.27;;;;;;;5.26;100.00;98075.53;4924177;29;20036;-79
2023/03/22 04:42:32;;;;;;;9.85;1.38;;;;;;;5.15;100.00;98079.34;4943599;29;20095;-80
2023/03/22 04:45:09;;;;;;;14.38;1.80;;;;;;;5.08;100.00;98081.81;4934629;28;20102;-79
2023/03/22 04:47:39;;;;;;;19.42;2.22;;;;;;;5.05;100.00;98081.31;4946842;28;20058;-79
2023/03/22 04:50:08;;;;;;;19.20;3.00;;;;;;;5.04;100.00;98091.00;4930275;29;20066;-79
2023/03/22 04:52:44;;;;;;;22.63;2.75;;;;;;;5.04;100.00;98091.00;4925032;29;20059;-79
2023/03/22 04:55:12;;;;;;;19.75;2.97;;;;;;;5.03;100.00;98091.16;4922453;29;20027;-79
2023/03/22 04:57:40;;;;;;;22.45;4.78;;;;;;;5.07;100.00;98090.66;4931242;29;20059;-77
2023/03/22 05:00:08;;;;;;;40.75;4.93;;;;;;;5.07;100.00;98101.13;4927485;29;20028;-77
2023/03/22 05:02:39;;;;;;;18.13;3.95;;;;;;;5.12;100.00;98102.44;4948254;28;20043;-80
2023/03/22 05:05:10;;;;;;;20.13;3.53;;;;;;;5.12;100.00;98105.88;4911607;29;20425;-79
2023/03/22 05:07:42;;;;;;;20.20;3.08;;;;;;;5.19;100.00;98098.16;4950132;28;20042;-79
2023/03/22 05:10:12;;;;;;;20.85;3.72;;;;;;;5.21;100.00;98097.00;4925527;29;20035;-79
2023/03/22 05:12:43;;;;;;;15.52;2.80;;;;;;;5.20;100.00;98113.72;4919273;28;20070;-79
2023/03/22 05:15:17;;;;;;;21.33;4.15;;;;;;;5.18;100.00;98110.44;4930893;29;20032;-79
2023/03/22 05:17:46;;;;;;;15.05;3.45;;;;;;;5.15;100.00;98108.16;4941614;28;20039;-79
2023/03/22 05:20:14;;;;;;;19.98;3.35;;;;;;;5.16;100.00;98101.13;4955592;28;20112;-79
2023/03/22 05:22:49;;;;;;;15.07;3.85;;;;;;;5.16;100.00;98114.22;4928226;29;20039;-77
2023/03/22 05:25:20;;;;;;;21.20;3.83;;;;;;;5.20;100.00;98112.88;4927411;29;20031;-79
2023/03/22 05:27:53;;;;;;;26.70;3.45;;;;;;;5.18;100.00;98118.28;4922670;28;20047;-79
2023/03/22 05:30:43;;;;;;;30.13;4.47;;;;;;;5.16;100.00;98112.41;4930914;29;20067;-79
2023/03/22 05:33:34;;;;;;;26.52;4.28;;;;;;;5.18;100.00;98107.00;4949053;29;20047;-79
2023/03/22 05:36:04;;;;;;;18.63;4.32;;;;;;;5.19;100.00;98117.28;4913630;29;20036;-79
2023/03/22 05:38:36;;;;;;;33.15;5.13;;;;;;;5.22;100.00;98122.19;4899863;29;20436;-79
2023/03/22 05:41:06;;;;;;;23.80;3.72;;;;;;;5.26;100.00;98108.78;4926102;29;20567;-79
2023/03/22 05:43:34;;;;;;;20.20;3.60;;;;;;;5.24;100.00;98113.38;4930486;29;20079;-79
2023/03/22 05:46:08;;;;;;;26.77;3.47;;;;;;;5.27;100.00;98118.28;4929954;29;20435;-79
2023/03/22 05:48:47;;;;;;;24.35;3.88;;;;;;;5.28;100.00;98125.16;4935245;29;20078;-79
2023/03/22 05:51:18;;;;;;;23.40;3.88;;;;;;;5.22;100.00;98121.41;4931638;29;20487;-80
2023/03/22 05:53:52;;;;;;;18.58;3.28;;;;;;;5.18;100.00;98123.53;4927330;29;20090;-79
2023/03/22 05:56:24;;;;;;;29.75;4.10;;;;;;;5.13;100.00;98114.56;4949590;28;20054;-79
2023/03/22 05:59:03;;;;;;;21.73;2.97;;;;;;;5.12;100.00;98126.00;4886417;28;20073;-79
2023/03/22 06:01:32;;;;;;;21.58;4.15;;;;;;;5.05;100.00;98120.59;4952898;28;20031;-79
2023/03/22 06:04:15;;;;;;;22.05;3.80;;;;;;;5.07;100.00;98121.25;4947628;29;20034;-79
2023/03/22 06:06:54;;;;;;;28.80;3.35;;;;;;;5.03;100.00;98114.72;4929723;28;20035;-79
2023/03/22 06:09:46;;;;;;;28.38;5.60;;;;;;;5.07;100.00;98122.09;4960985;28;20082;-80
2023/03/22 06:12:23;;;;;;;28.85;3.38;;;;;;;5.07;100.00;98121.25;4928961;28;20035;-79
2023/03/22 06:14:59;;;;;;;26.98;3.85;;;;;;;5.09;100.00;98119.28;4946745;28;20035;-79
2023/03/22 06:17:46;;;;;;;26.98;3.85;;;;;;;5.04;100.00;98121.59;4934317;28;20062;-79
2023/03/22 06:20:19;;;;;;;17.08;2.72;;;;;;;5.08;100.00;98115.84;4904104;28;20506;-80
2023/03/22 06:22:53;;;;;;;29.67;6.35;;;;;;;5.07;100.00;98119.47;4935335;28;20038;-79
2023/03/22 06:25:22;;;;;;;23.20;3.42;;;;;;;5.11;100.00;98109.47;4949431;28;20113;-80
2023/03/22 06:27:50;;;;;;;24.92;3.90;;;;;;;5.08;100.00;98113.22;4891586;28;20031;-80
2023/03/22 06:30:19;;;;;;;20.35;3.03;;;;;;;5.11;100.00;98111.28;4951837;28;20035;-80
2023/03/22 06:33:07;;;;;;;25.38;3.67;;;;;;;5.07;100.00;98106.38;4943375;29;20035;-80
2023/03/22 06:35:40;;;;;;;18.15;3.05;;;;;;;5.07;100.00;98109.00;4966073;28;20125;-80
2023/03/22 06:38:12;;;;;;;21.65;2.92;;;;;;;5.01;100.00;98116.69;4955312;28;20105;-79
2023/03/22 06:40:42;;;;;;;21.58;3.40;;;;;;;4.98;100.00;98110.00;4938429;28;20046;-79
2023/03/22 06:43:12;;;;;;;29.63;4.38;;;;;;;4.96;100.00;98104.91;4937392;28;20554;-79
2023/03/22 06:45:46;;;;;;;22.58;3.42;;;;;;;4.97;100.00;98106.53;4903646;28;20023;-79
2023/03/22 06:48:15;;;;;;;25.23;3.38;;;;;;;4.96;100.00;98104.09;4925660;28;20035;-79
2023/03/22 06:50:56;;;;;;;20.17;3.15;;;;;;;4.99;100.00;98093.28;4951519;28;20488;-77
2023/03/22 06:53:29;;;;;;;21.95;3.28;;;;;;;5.01;100.00;98091.34;4947028;28;20127;-77
2023/03/22 06:55:57;;;;;;;28.15;4.10;;;;;;;5.07;100.00;98095.06;4933592;28;20043;-79
2023/03/22 06:58:26;;;;;;;29.48;4.88;;;;;;;5.19;100.00;98090.31;4959900;28;20035;-79
2023/03/22 07:00:57;;;;;;;15.15;2.60;;;;;;;5.31;100.00;98094.19;4951678;28;20062;-80
2023/03/22 07:03:28;;;;;;;17.90;4.47;;;;;;;5.40;100.00;98087.13;4936367;28;20081;-80
2023/03/22 07:06:06;;;;;;;41.92;4.97;;;;;;;5.55;100.00;98082.00;4936722;28;20118;-79
2023/03/22 07:08:37;;;;;;;25.30;3.40;;;;;;;5.64;100.00;98082.75;4960291;28;20106;-80
2023/03/22 07:11:07;;;;;;;22.05;3.28;;;;;;;5.76;100.00;98074.53;4930017;28;20042;-80
2023/03/22 07:13:36;;;;;;;26.13;4.35;;;;;;;5.89;100.00;98072.13;4949610;29;20035;-80
2023/03/22 07:16:08;;;;;;;20.85;3.90;;;;;;;6.07;100.00;98071.09;4954009;28;20023;-79
2023/03/22 07:18:47;;;;;;;27.73;4.38;;;;;;;6.25;100.00;98080.47;4947059;28;20078;-79
2023/03/22 07:21:16;;;;;;;28.40;3.67;;;;;;;6.38;100.00;98078.09;4938404;28;20082;-80
2023/03/22 07:23:47;;;;;;;18.00;3.25;;;;;;;6.62;100.00;98083.31;4948930;28;20380;-80
2023/03/22 07:26:17;;;;;;;25.10;3.30;;;;;;;6.83;100.00;98077.41;4964777;28;20167;-79
2023/03/22 07:28:48;;;;;;;25.05;4.68;;;;;;;6.93;100.00;98077.94;4965957;28;20074;-79
2023/03/22 07:31:20;;;;;;;26.75;4.10;;;;;;;7.06;100.00;98087.00;4952809;28;20042;-80
2023/03/22 07:34:04;;;;;;;21.38;3.47;;;;;;;7.16;100.00;98082.31;4939015;28;20066;-79
2023/03/22 07:36:39;;;;;;;21.80;3.13;;;;;;;7.20;100.00;98080.13;4969133;28;20034;-79
2023/03/22 07:39:11;;;;;;;32.55;4.35;;;;;;;7.26;100.00;98082.03;4945931;28;20039;-79
2023/03/22 07:41:43;;;;;;;25.88;3.92;;;;;;;7.29;100.00;98083.50;4967876;28;20046;-79
2023/03/22 07:44:22;;;;;;;22.15;3.45;;;;;;;7.37;100.00;98085.22;4935423;28;20848;-79
2023/03/22 07:47:19;;;;;;;25.33;3.38;;;;;;;7.44;100.00;98086.09;4941953;28;20038;-79
2023/03/22 07:50:10;;;;;;;27.20;4.35;;;;;;;7.50;100.00;98085.38;4963137;28;20047;-79
2023/03/22 07:52:41;;;;;;;17.38;3.47;;;;;;;7.58;100.00;98068.66;4949768;28;20119;-79
2023/03/22 07:55:14;;;;;;;19.88;3.97;;;;;;;7.66;100.00;98073.03;4946751;28;20036;-80
2023/03/22 07:57:44;;;;;;;23.83;4.93;;;;;;;7.74;100.00;98074.75;4947708;29;20500;-79
2023/03/22 08:00:16;;;;;;;24.88;3.92;;;;;;;7.82;100.00;98078.06;4928824;29;20106;-79
2023/03/22 08:02:49;;;;;;;19.75;3.13;;;;;;;7.84;100.00;98064.72;4934587;29;20031;-79
2023/03/22 08:05:34;;;;;;;28.67;4.30;;;;;;;7.85;100.00;98065.56;4929421;29;20031;-79
2023/03/22 08:08:07;;;;;;;28.73;4.65;;;;;;;7.91;100.00;98055.13;4942163;28;20685;-79
2023/03/22 08:10:36;;;;;;;25.52;3.75;;;;;;;7.92;100.00;98059.38;4947561;28;20407;-79
2023/03/22 08:13:07;;;;;;;35.65;5.65;;;;;;;7.96;100.00;98053.72;4918201;29;20122;-79
2023/03/22 08:15:37;;;;;;;23.15;3.67;;;;;;;8.00;100.00;98058.44;4929314;29;20039;-79
2023/03/22 08:18:07;;;;;;;23.58;3.80;;;;;;;7.99;100.00;98054.19;4944722;28;20495;-79
2023/03/22 08:20:39;;;;;;;21.10;3.67;;;;;;;7.92;100.00;98048.84;4914672;29;20032;-79
2023/03/22 08:23:15;;;;;;;25.50;3.80;;;;;;;7.86;100.00;98052.22;4926659;29;20043;-79
2023/03/22 08:25:46;;;;;;;29.65;4.65;;;;;;;7.80;100.00;98056.38;4948524;29;20042;-79
2023/03/22 08:28:14;;;;;;;25.00;3.53;;;;;;;7.72;100.00;98053.91;4938345;29;20042;-79
2023/03/22 08:30:47;;;;;;;26.98;4.60;;;;;;;7.62;100.00;98054.19;4920305;29;20119;-79
2023/03/22 08:33:20;;;;;;;23.17;3.92;;;;;;;7.53;100.00;98045.56;4938075;29;20039;-79
2023/03/22 08:35:51;;;;;;;20.75;4.20;;;;;;;7.44;100.00;98044.88;4925984;29;20039;-79
2023/03/22 08:38:21;;;;;;;21.60;3.90;;;;;;;7.36;100.00;98037.09;4926466;29;20031;-80
2023/03/22 08:40:54;;;;;;;26.33;4.00;;;;;;;7.28;100.00;98037.16;4930372;28;20499;-79
2023/03/22 08:43:24;;;;;;;23.13;4.28;;;;;;;7.20;100.00;98038.91;4932142;29;20061;-79
2023/03/22 08:45:52;;;;;;;32.28;4.72;;;;;;;7.19;100.00;98039.91;4927443;29;20233;-79
2023/03/22 08:48:20;;;;;;;24.08;3.83;;;;;;;7.19;100.00;98026.78;4922947;29;20110;-79
2023/03/22 08:51:04;;;;;;;33.60;4.72;;;;;;;7.16;100.00;98031.56;4917488;29;20039;-79
2023/03/22 08:53:51;;;;;;;29.67;5.30;;;;;;;7.14;100.00;98029.13;4914270;29;20141;-79
2023/03/22 08:56:40;;;;;;;27.52;3.90;;;;;;;7.12;100.00;98020.59;4952540;28;20043;-79
2023/03/22 08:59:26;;;;;;;32.47;5.10;;;;;;;7.10;100.00;98027.88;4943275;28;20026;-79
2023/03/22 09:02:33;;;;;;;20.90;4.00;;;;;;;7.07;100.00;98021.16;4949839;28;20122;-79
2023/03/22 09:05:02;;;;;;;32.63;4.78;;;;;;;7.12;100.00;98019.81;4944346;28;20992;-79
2023/03/22 09:07:31;;;;;;;39.58;5.00;;;;;;;7.12;100.00;98023.25;4929837;28;20452;-79
2023/03/22 09:10:12;;;;;;;23.23;4.07;;;;;;;7.17;100.00;98009.56;4951455;28;20038;-79
2023/03/22 09:12:43;;;;;;;24.33;4.38;;;;;;;7.16;100.00;98014.00;4967681;28;20037;-78
2023/03/22 09:15:10;;;;;;;25.48;3.80;;;;;;;7.26;100.00;98008.44;4931122;28;20109;-79
2023/03/22 09:17:41;;;;;;;34.50;5.75;;;;;;;7.37;100.00;98015.06;4953578;28;20047;-79
2023/03/22 09:20:11;;;;;;;20.25;3.42;;;;;;;7.56;100.00;98015.50;4937456;28;20369;-79
2023/03/22 09:22:43;;;;;;;29.13;3.72;;;;;;;7.71;100.00;98018.06;4940380;28;20035;-79
2023/03/22 09:25:15;;;;;;;22.05;3.35;;;;;;;7.79;100.00;98020.59;4963371;28;20059;-79
2023/03/22 09:27:49;;;;;;;26.38;5.00;;;;;;;7.84;100.00;98019.19;4946102;28;20475;-79
2023/03/22 09:30:19;;;;;;;18.63;3.35;;;;;;;7.98;100.00;98020.97;4929689;28;20376;-79
2023/03/22 09:32:49;;;;;;;25.02;4.35;;;;;;;8.20;100.00;98015.72;4923593;28;20042;-79
2023/03/22 09:35:19;;;;;;;20.98;5.15;;;;;;;8.41;100.00;98004.34;4950398;28;20031;-79
2023/03/22 09:37:57;;;;;;;18.60;3.83;;;;;;;8.70;100.00;98009.63;4953860;28;20047;-79
2023/03/22 09:40:33;;;;;;;18.05;3.63;;;;;;;8.91;100.00;98016.66;4933953;29;20049;-79
2023/03/22 09:43:09;;;;;;;21.67;3.13;;;;;;;9.08;100.00;98003.16;4941094;28;20486;-79
2023/03/22 09:45:43;;;;;;;22.67;4.07;;;;;;;9.27;100.00;98014.00;4953537;28;20067;-79
2023/03/22 09:48:24;;;;;;;19.83;3.50;;;;;;;9.42;100.00;98005.94;4930790;28;20492;-79
2023/03/22 09:50:54;;;;;;;23.30;3.60;;;;;;;9.45;100.00;97997.63;4947061;28;20035;-79
2023/03/22 09:53:27;;;;;;;17.75;3.20;;;;;;;9.47;100.00;97998.25;4972203;28;20038;-79
2023/03/22 09:56:14;;;;;;;23.02;3.38;;;;;;;9.57;100.00;97995.25;4947369;28;20448;-79
2023/03/22 09:58:44;;;;;;;14.82;2.90;;;;;;;9.62;100.00;97998.09;4966412;28;20038;-79
2023/03/22 10:01:38;;;;;;;25.35;4.45;;;;;;;9.76;100.00;97995.50;4957197;28;20039;-79
2023/03/22 10:04:51;;;;;;;19.08;3.47;;;;;;;9.78;100.00;98004.00;4964774;28;20054;-79
2023/03/22 10:07:26;;;;;;;20.58;3.35;;;;;;;9.90;100.00;98010.34;4928851;29;20075;-79
2023/03/22 10:10:17;;;;;;;22.80;3.50;;;;;;;9.88;100.00;98000.97;4931543;28;20439;-78
2023/03/22 10:13:18;;;;;;;13.60;2.00;;;;;;;9.80;100.00;98005.44;4962402;28;20039;-79
2023/03/22 10:15:53;;;;;;;15.75;2.95;;;;;;;9.73;100.00;98001.97;4956950;28;20039;-79
2023/03/22 10:18:24;;;;;;;12.57;2.35;;;;;;;9.59;100.00;97993.22;4928732;28;20131;-79
2023/03/22 10:21:00;;;;;;;14.13;3.15;;;;;;;9.50;100.00;97987.31;4950513;28;20396;-79
2023/03/22 10:23:47;;;;;;;15.05;2.70;;;;;;;9.42;100.00;98005.94;4929417;28;20411;-79
2023/03/22 10:26:40;;;;;;;11.85;2.33;;;;;;;9.39;100.00;97998.44;4955004;28;21783;-79
2023/03/22 10:29:43;;;;;;;13.75;2.30;;;;;;;9.36;100.00;97993.53;4944173;28;20031;-79
2023/03/22 10:32:19;;;;;;;14.07;2.08;;;;;;;9.29;100.00;97996.16;4963303;28;20063;-79
2023/03/22 10:34:49;;;;;;;12.63;2.25;;;;;;;9.18;100.00;98000.16;4926959;29;20050;-79
2023/03/22 10:37:26;;;;;;;11.45;1.83;;;;;;;9.29;100.00;97996.97;4934893;28;20132;-79
2023/03/22 10:39:59;;;;;;;5.40;1.30;;;;;;;9.39;100.00;97983.44;4953094;29;20499;-78
2023/03/22 10:42:30;;;;;;;9.95;1.55;;;;;;;9.47;100.00;97982.44;4952030;28;20122;-79
2023/03/22 10:44:58;;;;;;;3.65;0.90;;;;;;;9.63;100.00;97980.44;4959664;28;20100;-79
2023/03/22 10:47:35;;;;;;;5.35;0.88;;;;;;;9.80;100.00;97968.50;4946821;28;20905;-79
2023/03/22 10:50:15;;;;;;;2.63;0.50;;;;;;;9.87;100.00;97960.63;4973920;28;20030;-79
2023/03/22 10:52:58;;;;;;;3.90;0.68;;;;;;;9.79;100.00;97971.34;4949772;28;20073;-79
2023/03/22 10:55:26;;;;;;;3.60;0.40;;;;;;;9.79;100.00;97974.78;4961282;28;20028;-78
2023/03/22 10:58:20;;;;;;;3.45;0.75;;;;;;;9.96;100.00;97965.66;4948574;29;20461;-79
2023/03/22 11:00:58;;;;;;;3.42;0.50;;;;;;;10.23;100.00;97960.41;4948188;29;20138;-79
2023/03/22 11:03:30;;;;;;;3.58;0.50;;;;;;;10.30;100.00;97964.66;4911079;29;20035;-79
2023/03/22 11:06:03;;;;;;;2.60;0.40;;;;;;;10.38;100.00;97960.19;4943314;29;20032;-78
2023/03/22 11:08:54;;;;;;;2.47;0.65;;;;;;;10.36;100.00;97947.19;4935030;29;20474;-79
2023/03/22 11:11:36;;;;;;;6.18;0.80;;;;;;;10.49;100.00;97959.63;4894996;29;20520;-79
2023/03/22 11:14:31;;;;;;;7.10;0.90;;;;;;;10.69;100.00;97948.19;4944126;29;20396;-78
2023/03/22 11:17:07;;;;;;;4.70;0.77;;;;;;;10.72;100.00;97947.78;4946424;29;20039;-79
2023/03/22 11:19:40;;;;;;;9.23;1.00;;;;;;;10.67;100.00;97945.75;4907730;29;20039;-79
2023/03/22 11:22:36;;;;;;;5.82;1.23;;;;;;;10.58;100.00;97930.31;4952695;29;20612;-79
2023/03/22 11:25:30;;;;;;;6.30;0.98;;;;;;;10.42;100.00;97930.53;4926419;29;20051;-79
2023/03/22 11:28:16;;;;;;;8.10;0.82;;;;;;;10.51;100.00;97960.19;4937991;29;20396;-79
2023/03/22 11:31:14;;;;;;;3.80;0.70;;;;;;;10.48;100.00;97949.25;4933243;29;20370;-79
2023/03/22 11:34:16;;;;;;;5.88;1.88;;;;;;;10.57;100.00;97926.88;4947724;29;20042;-79
2023/03/22 11:36:53;;;;;;;4.68;1.15;;;;;;;10.65;100.00;97924.00;4944933;29;20031;-79
2023/03/22 11:39:26;;;;;;;5.35;0.88;;;;;;;10.74;100.00;97923.78;4943851;28;20060;-79
2023/03/22 11:42:00;;;;;;;8.00;1.27;;;;;;;10.87;100.00;97921.13;4906717;29;20564;-79
2023/03/22 11:44:34;;;;;;;4.57;0.80;;;;;;;10.75;100.00;97909.56;4938180;29;20405;-79
2023/03/22 11:47:07;;;;;;;4.88;1.00;;;;;;;10.86;100.00;97923.97;4930661;29;20090;-79
2023/03/22 11:49:47;;;;;;;3.70;0.80;;;;;;;11.08;100.00;97911.28;4920651;29;20077;-79
2023/03/22 11:52:25;;;;;;;4.75;0.93;;;;;;;11.32;100.00;97921.31;4952225;29;20043;-79
2023/03/22 11:54:56;;;;;;;4.43;0.93;;;;;;;11.27;100.00;97917.50;4952078;29;20042;-79
2023/03/22 11:57:30;;;;;;;4.13;0.75;;;;;;;11.33;100.00;97920.28;4942896;28;20511;-79
2023/03/22 12:00:10;;;;;;;5.72;1.15;;;;;;;11.23;100.00;97916.28;4966617;28;20026;-79
2023/03/22 12:02:58;;;;;;;5.72;0.93;;;;;;;11.29;100.00;97915.41;4950928;28;20118;-79
2023/03/22 12:05:30;;;;;;;5.07;0.75;;;;;;;11.21;100.00;97915.66;4910657;29;20103;-79
2023/03/22 12:08:09;;;;;;;4.75;0.75;;;;;;;11.24;100.00;97911.81;4964838;28;20035;-79